Terminal Aerodrome Forecast
Issued by NWS

Home | Current Version | Previous Version | Text Only | Print | Product List | Glossary On
Versions: 1 2 3 4 5 6 7 8 9 10 11 12 13
000
FTUS45 KTFX 281100
TAFLWT
TAF
KLWT 281132Z 2812/0112 26006KT P6SM OVC025
      TEMPO 2812/2815 2SM -SN OVC012
     FM281900 30006KT P6SM SCT025
     FM010900 28006KT P6SM VCSH BKN015=

USA.gov is the U.S. government's official web portal to all federal, state and local government web resources and services.